Time;durP1;ratioP1;P1;durP2;ratioP2;P2;SDS_P1;SDS_P2;PMS_P1;PMS_P2;Temp;Humidity;BMP_temperature;BMP_pressure;BME280_temperature;BME280_humidity;BME280_pressure;Samples;Min_cycle;Max_cycle;Signal;HPM_P1;HPM_P2
2022/03/14 00:01:04;;;;;;;6.40;2.15;;;;;;;-149.78;100.00;50324.75;4842955;29;20033;-68
2022/03/14 00:03:32;;;;;;;11.45;2.53;;;;;;;-149.78;100.00;50346.28;4842984;29;20042;-68
2022/03/14 00:05:59;;;;;;;12.40;2.92;;;;;;;-149.78;100.00;50367.78;4842956;29;20041;-68
2022/03/14 00:08:25;;;;;;;6.95;2.00;;;;;;;-149.78;100.00;50369.75;4824361;29;20047;-67
2022/03/14 00:10:52;;;;;;;9.00;2.03;;;;;;;-149.78;100.00;50359.97;4814371;29;20046;-67
2022/03/14 00:13:19;;;;;;;14.05;2.17;;;;;;;-149.78;100.00;50377.56;4825720;29;20118;-68
2022/03/14 00:15:45;;;;;;;8.98;2.40;;;;;;;-149.78;100.00;50373.66;4833012;29;20387;-68
2022/03/14 00:18:12;;;;;;;7.85;1.90;;;;;;;-149.78;100.00;50377.56;4815832;29;20031;-67
2022/03/14 00:20:41;;;;;;;8.57;2.25;;;;;;;-149.78;100.00;50377.56;4807318;29;20042;-68
2022/03/14 00:23:08;;;;;;;10.32;2.10;;;;;;;-149.78;100.00;50342.38;4823663;29;20402;-68
2022/03/14 00:25:34;;;;;;;13.45;1.95;;;;;;;-149.78;100.00;50340.41;4808245;29;20042;-68
2022/03/14 00:28:00;;;;;;;9.38;2.20;;;;;;;-149.78;100.00;50375.63;4808180;29;20479;-68
2022/03/14 00:30:26;;;;;;;10.93;3.03;;;;;;;-149.78;100.00;50354.09;4824270;29;20107;-68
2022/03/14 00:32:52;;;;;;;11.93;2.10;;;;;;;-149.78;100.00;50346.28;4807935;29;20439;-68
2022/03/14 00:35:18;;;;;;;10.15;2.38;;;;;;;-149.78;100.00;50346.28;4824095;29;20058;-68
2022/03/14 00:37:45;;;;;;;10.52;2.17;;;;;;;-149.78;100.00;50354.09;4807882;29;20045;-68
2022/03/14 00:40:11;;;;;;;15.27;2.50;;;;;;;-149.78;100.00;50350.19;4818960;29;20046;-68
2022/03/14 00:42:39;;;;;;;7.95;1.83;;;;;;;-149.78;100.00;50365.84;4842355;29;20125;-68
2022/03/14 00:45:09;;;;;;;11.47;2.30;;;;;;;-149.78;100.00;50365.84;4842359;29;20455;-68
2022/03/14 00:47:35;;;;;;;4.97;2.00;;;;;;;-149.78;100.00;50365.84;4842514;29;20049;-68
2022/03/14 00:50:01;;;;;;;8.10;2.28;;;;;;;-149.78;100.00;50342.38;4842135;29;20030;-68
2022/03/14 00:52:27;;;;;;;7.47;2.10;;;;;;;-149.78;100.00;50377.56;4842060;29;20033;-68
2022/03/14 00:54:53;;;;;;;7.32;1.80;;;;;;;-149.78;100.00;50377.56;4841921;29;20090;-68
2022/03/14 00:57:24;;;;;;;13.45;2.50;;;;;;;-149.78;100.00;50361.91;4841949;29;20125;-68
2022/03/14 00:59:50;;;;;;;12.90;2.10;;;;;;;-149.78;100.00;50404.94;4841908;29;20126;-68
2022/03/14 01:02:16;;;;;;;4.85;2.15;;;;;;;-149.78;100.00;50361.91;4825703;29;20046;-68
2022/03/14 01:04:42;;;;;;;6.30;2.40;;;;;;;-149.78;100.00;50369.75;4841962;29;20046;-68
2022/03/14 01:07:08;;;;;;;8.35;2.15;;;;;;;-149.78;100.00;50401.03;4825658;29;20045;-67
2022/03/14 01:09:33;;;;;;;9.30;2.03;;;;;;;-149.78;100.00;50381.47;4841959;29;20558;-67
2022/03/14 01:12:00;;;;;;;8.73;2.38;;;;;;;-149.78;100.00;50363.88;4832132;29;20086;-68
2022/03/14 01:14:26;;;;;;;12.38;2.33;;;;;;;-149.78;100.00;50373.66;4807889;29;20163;-68
2022/03/14 01:16:53;;;;;;;13.18;2.35;;;;;;;-149.78;100.00;50414.72;4807351;29;20125;-68
2022/03/14 01:19:19;;;;;;;18.13;3.60;;;;;;;-149.78;100.00;50393.22;4823145;29;20073;-68
2022/03/14 01:21:46;;;;;;;8.80;1.90;;;;;;;-149.78;100.00;50314.97;4823697;29;20077;-68
2022/03/14 01:24:11;;;;;;;9.95;2.50;;;;;;;-149.78;100.00;50385.38;4823582;29;20042;-68
2022/03/14 01:26:38;;;;;;;14.50;2.40;;;;;;;-149.78;100.00;50379.53;4823700;29;20042;-68
2022/03/14 01:29:05;;;;;;;9.55;2.20;;;;;;;-149.78;100.00;50346.28;4792561;29;20077;-67
2022/03/14 01:31:32;;;;;;;17.13;4.30;;;;;;;-149.78;100.00;50389.31;4823635;29;20121;-68
2022/03/14 01:33:58;;;;;;;7.82;2.38;;;;;;;-149.78;100.00;50342.38;4822637;29;20070;-67
2022/03/14 01:36:25;;;;;;;6.13;2.17;;;;;;;-149.78;100.00;50375.63;4807394;29;20046;-68
2022/03/14 01:38:50;;;;;;;8.10;2.35;;;;;;;-149.78;100.00;50354.09;4823050;29;20563;-68
2022/03/14 01:41:18;;;;;;;14.90;2.65;;;;;;;-149.78;100.00;50352.16;4840440;29;20129;-68
2022/03/14 01:43:44;;;;;;;16.38;3.10;;;;;;;-149.78;100.00;50354.09;4825307;29;20038;-68
2022/03/14 01:46:12;;;;;;;9.93;2.30;;;;;;;-149.78;100.00;50381.47;4840499;29;20042;-68
2022/03/14 01:48:38;;;;;;;13.77;2.20;;;;;;;-149.78;100.00;50377.56;4841562;29;20580;-68
2022/03/14 01:51:04;;;;;;;10.95;2.60;;;;;;;-149.78;100.00;50354.09;4841503;29;20133;-68
2022/03/14 01:53:30;;;;;;;9.68;2.15;;;;;;;-149.78;100.00;50369.75;4825189;29;20501;-68
2022/03/14 01:55:56;;;;;;;17.92;2.40;;;;;;;-149.78;100.00;50381.47;4841418;29;20179;-68
2022/03/14 01:58:22;;;;;;;14.57;2.72;;;;;;;-149.78;100.00;50365.84;4824856;29;20211;-68
2022/03/14 02:00:47;;;;;;;12.52;2.30;;;;;;;-149.78;100.00;50342.38;4841464;29;20049;-67
2022/03/14 02:03:13;;;;;;;10.10;2.10;;;;;;;-149.78;100.00;50365.84;4840047;29;20038;-68
2022/03/14 02:05:40;;;;;;;9.05;2.10;;;;;;;-149.78;100.00;50369.75;4809959;29;20046;-68
2022/03/14 02:08:07;;;;;;;8.35;2.20;;;;;;;-149.78;100.00;50414.72;4833334;29;20044;-68
2022/03/14 02:10:34;;;;;;;12.63;2.65;;;;;;;-149.78;100.00;50369.75;4840867;29;20030;-68
2022/03/14 02:13:05;;;;;;;9.20;2.38;;;;;;;-149.78;100.00;50381.47;4841335;29;20030;-68
2022/03/14 02:15:30;;;;;;;10.70;2.97;;;;;;;-149.78;100.00;50410.81;4841332;29;20046;-68
2022/03/14 02:17:56;;;;;;;12.20;2.75;;;;;;;-149.78;100.00;50354.09;4841406;29;20490;-68
2022/03/14 02:20:22;;;;;;;15.48;2.63;;;;;;;-149.78;100.00;50377.56;4841403;29;20042;-68
2022/03/14 02:22:48;;;;;;;13.15;2.53;;;;;;;-149.78;100.00;50381.47;4841122;29;20045;-68
2022/03/14 02:25:15;;;;;;;11.15;3.25;;;;;;;-149.78;100.00;50367.78;4841206;29;20124;-68
2022/03/14 02:27:40;;;;;;;13.40;2.50;;;;;;;-149.78;100.00;50365.84;4825073;29;20050;-68
2022/03/14 02:30:07;;;;;;;9.10;2.20;;;;;;;-149.78;100.00;50369.75;4842087;29;20041;-68
2022/03/14 02:32:32;;;;;;;16.40;2.50;;;;;;;-149.78;100.00;50393.22;4828237;29;20427;-68
2022/03/14 02:34:58;;;;;;;13.73;2.30;;;;;;;-149.78;100.00;50408.84;4843330;29;20207;-68
2022/03/14 02:37:24;;;;;;;9.73;2.25;;;;;;;-149.78;100.00;50373.66;4828081;29;20085;-68
2022/03/14 02:39:50;;;;;;;13.55;2.33;;;;;;;-149.78;100.00;50348.22;4841222;29;20380;-68
2022/03/14 02:42:17;;;;;;;13.68;2.22;;;;;;;-149.78;100.00;50404.94;4823807;29;20483;-68
2022/03/14 02:44:43;;;;;;;9.70;2.38;;;;;;;-149.78;100.00;50404.94;4825758;29;20102;-68
2022/03/14 02:47:11;;;;;;;17.02;2.65;;;;;;;-149.78;100.00;50342.38;4825960;29;20038;-68
2022/03/14 02:49:37;;;;;;;12.70;2.55;;;;;;;-149.78;100.00;50365.84;4825628;29;20030;-68
2022/03/14 02:52:03;;;;;;;15.23;3.30;;;;;;;-149.78;100.00;50397.13;4826010;29;20103;-68
2022/03/14 02:54:29;;;;;;;10.00;2.35;;;;;;;-149.78;100.00;50373.66;4809467;29;20035;-68
2022/03/14 02:56:56;;;;;;;22.77;2.78;;;;;;;-149.78;100.00;50397.13;4794562;29;20053;-68
2022/03/14 02:59:23;;;;;;;10.02;2.20;;;;;;;-149.78;100.00;50416.69;4825539;29;20117;-68
2022/03/14 03:01:48;;;;;;;8.63;2.17;;;;;;;-149.78;100.00;50352.16;4808665;29;20504;-68
2022/03/14 03:04:14;;;;;;;12.93;3.10;;;;;;;-149.78;100.00;50408.84;4816816;29;20043;-68
2022/03/14 03:06:40;;;;;;;12.73;2.38;;;;;;;-149.78;100.00;50371.69;4791202;29;20043;-68
2022/03/14 03:09:06;;;;;;;15.15;3.20;;;;;;;-149.78;100.00;50395.16;4813978;29;20506;-68
2022/03/14 03:11:33;;;;;;;9.90;2.25;;;;;;;-149.78;100.00;50385.38;4834594;29;20046;-68
2022/03/14 03:13:59;;;;;;;14.00;2.53;;;;;;;-149.78;100.00;50389.31;4812627;29;20038;-68
2022/03/14 03:16:26;;;;;;;9.07;2.42;;;;;;;-149.78;100.00;50358.00;4829723;29;20050;-68
2022/03/14 03:18:52;;;;;;;8.95;2.45;;;;;;;-149.78;100.00;50375.63;4825574;29;20049;-68
2022/03/14 03:21:19;;;;;;;11.27;2.55;;;;;;;-149.78;100.00;50424.50;4825572;29;20617;-68
2022/03/14 03:23:45;;;;;;;13.15;2.90;;;;;;;-149.78;100.00;50403.00;4825632;29;20045;-68
2022/03/14 03:26:10;;;;;;;11.52;2.30;;;;;;;-149.78;100.00;50420.59;4825380;29;20510;-68
2022/03/14 03:28:36;;;;;;;10.23;2.22;;;;;;;-149.78;100.00;50350.19;4825432;29;20038;-68
2022/03/14 03:31:07;;;;;;;15.90;3.08;;;;;;;-149.78;100.00;50412.78;4824192;29;20038;-68
2022/03/14 03:33:34;;;;;;;15.63;2.78;;;;;;;-149.78;100.00;50385.38;4825200;29;20043;-68
2022/03/14 03:36:00;;;;;;;15.18;2.45;;;;;;;-149.78;100.00;50381.47;4825340;29;20049;-68
2022/03/14 03:38:27;;;;;;;11.82;2.80;;;;;;;-149.78;100.00;50408.84;4825237;29;20047;-68
2022/03/14 03:40:52;;;;;;;15.38;2.30;;;;;;;-149.78;100.00;50389.31;4825171;29;20124;-68
2022/03/14 03:43:18;;;;;;;10.25;2.83;;;;;;;-149.78;100.00;50399.09;4825089;29;20573;-68
2022/03/14 03:45:44;;;;;;;15.18;2.83;;;;;;;-149.78;100.00;50420.59;4823950;29;20049;-68
2022/03/14 03:48:09;;;;;;;16.50;3.25;;;;;;;-149.78;100.00;50393.22;4824022;29;20043;-68
2022/03/14 03:50:35;;;;;;;14.05;2.67;;;;;;;-149.78;100.00;50389.31;4823702;29;20042;-68
2022/03/14 03:53:01;;;;;;;13.32;2.70;;;;;;;-149.78;100.00;50369.75;4817756;29;20131;-68
2022/03/14 03:55:26;;;;;;;13.93;2.75;;;;;;;-149.78;100.00;50375.63;4821419;29;20520;-68
2022/03/14 03:57:53;;;;;;;13.63;3.10;;;;;;;-149.78;100.00;50397.13;4808761;29;20049;-68
2022/03/14 04:00:19;;;;;;;14.98;2.63;;;;;;;-149.78;100.00;50361.91;4824946;29;20666;-68
2022/03/14 04:02:46;;;;;;;17.35;3.70;;;;;;;-149.78;100.00;50385.38;4808584;29;20183;-68
2022/03/14 04:05:16;;;;;;;19.42;3.08;;;;;;;-149.78;100.00;50373.66;4824891;29;20042;-68
2022/03/14 04:07:43;;;;;;;12.63;2.70;;;;;;;-149.78;100.00;50381.47;4808503;29;20036;-68
2022/03/14 04:10:11;;;;;;;9.55;2.85;;;;;;;-149.78;100.00;50428.41;4825310;29;20042;-68
2022/03/14 04:12:39;;;;;;;17.30;3.13;;;;;;;-149.78;100.00;50361.91;4842644;29;20049;-68
2022/03/14 04:15:12;;;;;;;11.93;3.00;;;;;;;-149.78;100.00;50408.84;4813496;29;20053;-68
2022/03/14 04:17:42;;;;;;;15.93;4.10;;;;;;;-149.78;100.00;50428.41;4832393;29;20046;-68
2022/03/14 04:20:11;;;;;;;16.35;2.85;;;;;;;-149.78;100.00;50444.06;4841077;29;20064;-68
2022/03/14 04:22:40;;;;;;;19.05;2.72;;;;;;;-149.78;100.00;50401.03;4842616;29;20068;-68
2022/03/14 04:25:07;;;;;;;9.85;2.50;;;;;;;-149.78;100.00;50412.78;4841717;29;20030;-68
2022/03/14 04:27:33;;;;;;;18.90;3.15;;;;;;;-149.78;100.00;50406.91;4825778;29;20041;-68
2022/03/14 04:29:59;;;;;;;7.95;2.08;;;;;;;-149.78;100.00;50399.09;4842612;29;20048;-68
2022/03/14 04:32:25;;;;;;;12.80;2.85;;;;;;;-149.78;100.00;50389.31;4835711;29;20034;-68
2022/03/14 04:34:51;;;;;;;17.45;3.15;;;;;;;-149.78;100.00;50389.31;4826930;29;20086;-68
2022/03/14 04:37:17;;;;;;;13.00;2.72;;;;;;;-149.78;100.00;50393.22;4824375;29;20372;-68
2022/03/14 04:39:43;;;;;;;14.30;3.10;;;;;;;-149.78;100.00;50412.78;4807965;29;20069;-68
2022/03/14 04:42:09;;;;;;;13.20;3.47;;;;;;;-149.78;100.00;50412.78;4824348;29;20040;-68
2022/03/14 04:44:36;;;;;;;11.75;3.15;;;;;;;-149.78;100.00;50397.13;4822798;29;20046;-68
2022/03/14 04:47:02;;;;;;;10.55;2.95;;;;;;;-149.78;100.00;50338.44;4823996;29;20045;-68
2022/03/14 04:49:28;;;;;;;10.95;2.97;;;;;;;-149.78;100.00;50459.72;4829458;29;20045;-68
2022/03/14 04:51:55;;;;;;;13.57;2.88;;;;;;;-149.78;100.00;50393.22;4840120;29;20419;-68
2022/03/14 04:54:23;;;;;;;13.75;2.92;;;;;;;-149.78;100.00;50414.72;4822577;29;20107;-68
2022/03/14 04:56:51;;;;;;;12.15;2.80;;;;;;;-149.78;100.00;50401.03;4823821;29;20073;-68
2022/03/14 04:59:17;;;;;;;15.27;2.92;;;;;;;-149.78;100.00;50401.03;4807407;29;20066;-68
2022/03/14 05:01:43;;;;;;;12.68;2.70;;;;;;;-149.78;100.00;50436.25;4807273;29;20046;-68
2022/03/14 05:04:09;;;;;;;17.58;3.40;;;;;;;-149.78;100.00;50389.31;4823910;29;20141;-68
2022/03/14 05:06:35;;;;;;;13.60;3.00;;;;;;;-149.78;100.00;50389.31;4823901;29;20137;-68
2022/03/14 05:09:01;;;;;;;17.27;3.38;;;;;;;-149.78;100.00;50412.78;4807546;29;20042;-68
2022/03/14 05:11:27;;;;;;;10.13;3.08;;;;;;;-149.78;100.00;50420.59;4833966;29;20629;-68
2022/03/14 05:13:53;;;;;;;11.43;3.00;;;;;;;-149.78;100.00;50397.13;4842137;29;20113;-68
2022/03/14 05:16:19;;;;;;;13.15;4.13;;;;;;;-149.78;100.00;50371.69;4841930;29;20030;-68
2022/03/14 05:18:46;;;;;;;23.65;3.50;;;;;;;-149.78;100.00;50418.63;4841888;29;20046;-68
2022/03/14 05:21:13;;;;;;;11.30;3.05;;;;;;;-149.78;100.00;50412.78;4841841;29;20048;-68
2022/03/14 05:23:39;;;;;;;14.02;3.30;;;;;;;-149.78;100.00;50436.25;4840529;29;20045;-68
2022/03/14 05:26:05;;;;;;;13.93;3.35;;;;;;;-149.78;100.00;50408.84;4841768;29;20045;-68
2022/03/14 05:28:30;;;;;;;21.40;3.63;;;;;;;-149.78;100.00;50389.31;4841813;29;20041;-68
2022/03/14 05:30:57;;;;;;;16.70;3.72;;;;;;;-149.78;100.00;50369.75;4840627;29;20132;-68
2022/03/14 05:33:23;;;;;;;15.55;3.47;;;;;;;-149.78;100.00;50397.13;4810299;29;20109;-68
2022/03/14 05:35:50;;;;;;;18.45;3.72;;;;;;;-149.78;100.00;50361.91;4806552;29;20482;-67
2022/03/14 05:38:15;;;;;;;18.52;3.50;;;;;;;-149.78;100.00;50397.13;4807040;29;20084;-68
2022/03/14 05:40:41;;;;;;;13.02;3.40;;;;;;;-149.78;100.00;50408.84;4823262;29;20058;-67
2022/03/14 05:43:09;;;;;;;17.35;3.92;;;;;;;-149.78;100.00;50393.22;4823361;29;20077;-68
2022/03/14 05:45:35;;;;;;;17.88;4.68;;;;;;;-149.78;100.00;50426.47;4822147;29;20483;-68
2022/03/14 05:48:01;;;;;;;17.83;4.13;;;;;;;-149.78;100.00;50404.94;4823328;29;20041;-68
2022/03/14 05:50:27;;;;;;;18.90;4.00;;;;;;;-149.78;100.00;50428.41;4835736;29;20545;-68
2022/03/14 05:52:53;;;;;;;18.52;5.30;;;;;;;-149.78;100.00;50420.59;4841564;29;20122;-68
2022/03/14 05:55:18;;;;;;;15.90;4.28;;;;;;;-149.78;100.00;50408.84;4824961;29;20386;-68
2022/03/14 05:57:45;;;;;;;9.88;3.83;;;;;;;-149.78;100.00;50404.94;4841389;29;20044;-68
2022/03/14 06:00:12;;;;;;;11.65;3.72;;;;;;;-149.78;100.00;50440.16;4841314;29;20037;-67
2022/03/14 06:02:38;;;;;;;14.15;3.53;;;;;;;-149.78;100.00;50404.94;4841242;29;20042;-68
2022/03/14 06:05:05;;;;;;;7.78;3.17;;;;;;;-149.78;100.00;50408.84;4843870;29;20030;-68
2022/03/14 06:07:31;;;;;;;18.55;4.28;;;;;;;-149.78;100.00;50424.50;4844831;29;20037;-68
2022/03/14 06:09:57;;;;;;;14.65;3.63;;;;;;;-149.78;100.00;50410.81;4844916;29;20049;-68
2022/03/14 06:12:30;;;;;;;8.25;3.00;;;;;;;-149.78;100.00;50389.31;4844348;29;20038;-68
2022/03/14 06:14:58;;;;;;;15.45;4.47;;;;;;;-149.78;100.00;50424.50;4827550;29;20089;-68
2022/03/14 06:17:25;;;;;;;18.77;4.20;;;;;;;-149.78;100.00;50426.47;4844119;29;20117;-68
2022/03/14 06:19:51;;;;;;;17.38;5.22;;;;;;;-149.78;100.00;50432.31;4827593;29;20558;-68
2022/03/14 06:22:21;;;;;;;12.73;4.32;;;;;;;-149.78;100.00;50408.84;4844007;29;20042;-68
2022/03/14 06:24:48;;;;;;;16.42;4.53;;;;;;;-149.78;100.00;50414.72;4844091;29;20038;-68
2022/03/14 06:27:18;;;;;;;12.02;3.70;;;;;;;-149.78;100.00;50420.59;4844653;29;20052;-68
2022/03/14 06:29:45;;;;;;;11.13;4.05;;;;;;;-149.78;100.00;50444.06;4843249;29;20045;-68
2022/03/14 06:32:11;;;;;;;16.95;4.70;;;;;;;-149.78;100.00;50438.19;4836089;29;20371;-68
2022/03/14 06:34:37;;;;;;;14.43;4.13;;;;;;;-149.78;100.00;50418.63;4820718;29;20057;-68
2022/03/14 06:37:06;;;;;;;14.13;4.15;;;;;;;-149.78;100.00;50354.09;4824915;29;20038;-68
2022/03/14 06:39:36;;;;;;;14.27;4.22;;;;;;;-149.78;100.00;50428.41;4826000;29;20487;-68
2022/03/14 06:42:10;;;;;;;19.17;4.72;;;;;;;-149.78;100.00;50451.88;4821777;29;20038;-68
2022/03/14 06:44:38;;;;;;;10.93;4.35;;;;;;;-149.78;100.00;50397.13;4823491;29;20044;-69
2022/03/14 06:47:08;;;;;;;17.70;4.65;;;;;;;-149.78;100.00;50438.19;4823515;29;20030;-69
2022/03/14 06:49:36;;;;;;;17.42;4.00;;;;;;;-149.78;100.00;50403.00;4825282;29;20049;-69
2022/03/14 06:52:02;;;;;;;13.75;3.80;;;;;;;-149.78;100.00;50397.13;4822769;29;20030;-68
2022/03/14 06:54:28;;;;;;;11.45;3.85;;;;;;;-149.78;100.00;50401.03;4818010;29;20057;-69
2022/03/14 06:56:54;;;;;;;11.88;3.40;;;;;;;-149.78;100.00;50422.56;4822854;29;20030;-68
2022/03/14 06:59:20;;;;;;;9.02;4.05;;;;;;;-149.78;100.00;50412.78;4797243;29;20046;-68
2022/03/14 07:01:46;;;;;;;14.27;3.63;;;;;;;-149.78;100.00;50404.94;4803538;29;20061;-68
2022/03/14 07:04:11;;;;;;;11.68;3.15;;;;;;;-149.78;100.00;50408.84;4822402;29;20038;-68
2022/03/14 07:06:37;;;;;;;11.98;3.78;;;;;;;-149.78;100.00;50428.41;4820642;29;20045;-68
2022/03/14 07:09:04;;;;;;;13.80;3.65;;;;;;;-149.78;100.00;50416.69;4823219;29;20129;-68
2022/03/14 07:11:31;;;;;;;10.88;3.47;;;;;;;-149.78;100.00;50408.84;4823390;29;20037;-68
2022/03/14 07:13:57;;;;;;;13.57;3.60;;;;;;;-149.78;100.00;50436.25;4822512;29;20023;-67
2022/03/14 07:16:23;;;;;;;15.65;3.83;;;;;;;-149.78;100.00;50412.78;4824151;29;20034;-68
2022/03/14 07:18:49;;;;;;;14.65;4.05;;;;;;;-149.78;100.00;50420.59;4824990;29;20038;-68
2022/03/14 07:21:16;;;;;;;9.00;3.33;;;;;;;-149.78;100.00;50467.53;4810778;29;20041;-68
2022/03/14 07:23:42;;;;;;;11.43;4.80;;;;;;;-149.78;100.00;50438.19;4831525;29;20494;-69
2022/03/14 07:26:08;;;;;;;17.13;3.53;;;;;;;-149.78;100.00;50408.84;4820620;29;20125;-66
2022/03/14 07:28:34;;;;;;;10.23;3.05;;;;;;;-149.78;100.00;50354.09;4834995;29;20438;-68
2022/03/14 07:30:59;;;;;;;15.95;3.55;;;;;;;-149.78;100.00;50393.22;4805389;29;20035;-68
2022/03/14 07:33:25;;;;;;;9.95;3.08;;;;;;;-149.78;100.00;50430.38;4807305;29;20061;-68
2022/03/14 07:35:51;;;;;;;20.73;3.97;;;;;;;-149.78;100.00;50393.22;4807091;29;20200;-68
2022/03/14 07:38:17;;;;;;;12.40;3.65;;;;;;;-149.78;100.00;50393.22;4806104;29;20535;-68
2022/03/14 07:40:42;;;;;;;10.13;3.65;;;;;;;-149.78;100.00;50397.13;4790869;29;20502;-68
2022/03/14 07:43:08;;;;;;;8.82;3.10;;;;;;;-149.78;100.00;50428.41;4790931;29;20046;-68
2022/03/14 07:45:34;;;;;;;8.43;2.90;;;;;;;-149.78;100.00;50401.03;4790935;29;20472;-68
2022/03/14 07:48:00;;;;;;;14.48;3.13;;;;;;;-149.78;100.00;50412.78;4807121;29;20042;-68
2022/03/14 07:50:27;;;;;;;15.10;3.63;;;;;;;-149.78;100.00;50383.44;4796290;29;20040;-68
2022/03/14 07:52:53;;;;;;;10.32;3.10;;;;;;;-149.78;100.00;50365.84;4824414;29;20396;-68
2022/03/14 07:55:18;;;;;;;10.23;3.15;;;;;;;-149.78;100.00;50287.59;4824814;29;20042;-69
2022/03/14 07:57:44;;;;;;;5.78;2.70;;;;;;;-149.78;100.00;50256.31;4823396;29;20098;-68
2022/03/14 08:00:13;;;;;;;7.25;2.47;;;;;;;-149.78;100.00;50236.75;4812948;29;20449;-68
2022/03/14 08:02:39;;;;;;;8.43;2.08;;;;;;;-149.78;100.00;50207.44;4805451;29;20030;-68
2022/03/14 08:05:07;;;;;;;6.25;2.08;;;;;;;-149.78;100.00;50189.81;4833563;29;20045;-67
2022/03/14 08:07:34;;;;;;;4.93;2.22;;;;;;;-149.78;100.00;50156.56;4825648;29;20038;-68
2022/03/14 08:10:09;;;;;;;8.52;2.28;;;;;;;-149.78;85.40;50150.72;4819479;29;20095;-70
2022/03/14 08:12:49;;;;;;;8.88;2.50;;;;;;;-149.78;72.82;50115.50;4818843;29;20121;-70
2022/03/14 08:15:27;;;;;;;7.82;2.30;;;;;;;-149.78;66.64;50084.22;4820933;29;20055;-69
2022/03/14 08:17:56;;;;;;;5.05;1.73;;;;;;;-149.78;60.94;50133.09;4805536;29;20046;-69
2022/03/14 08:20:23;;;;;;;8.75;2.42;;;;;;;-149.78;60.24;50084.22;4822963;29;20517;-70
2022/03/14 08:22:50;;;;;;;6.05;2.10;;;;;;;-149.78;57.87;50111.59;4804089;29;20517;-69
2022/03/14 08:25:16;;;;;;;6.72;2.67;;;;;;;-149.78;54.51;50013.81;4800970;29;20090;-69
2022/03/14 08:27:42;;;;;;;9.18;2.80;;;;;;;-149.78;54.41;50056.84;4822822;29;20034;-70
2022/03/14 08:30:08;;;;;;;4.80;1.95;;;;;;;-149.78;52.59;50068.56;4823992;29;20046;-69
2022/03/14 08:32:36;;;;;;;6.53;2.25;;;;;;;-149.78;54.33;50049.03;4823903;29;20041;-69
2022/03/14 08:35:07;;;;;;;7.97;2.53;;;;;;;-149.78;51.45;50045.09;4823218;29;20134;-70
2022/03/14 08:37:39;;;;;;;6.10;1.88;;;;;;;-149.78;48.83;50033.38;4806765;29;20038;-70
2022/03/14 08:40:10;;;;;;;6.65;2.33;;;;;;;-149.78;48.33;50045.09;4823912;29;20496;-70
2022/03/14 08:42:56;;;;;;;4.03;1.80;;;;;;;-149.78;46.58;50017.72;4823879;29;20034;-70
2022/03/14 08:45:28;;;;;;;6.63;2.70;;;;;;;-149.78;46.67;50045.09;4823551;29;20030;-70
2022/03/14 08:48:05;;;;;;;5.22;1.85;;;;;;;-149.78;46.72;50033.38;4808113;29;20673;-70
2022/03/14 08:50:32;;;;;;;6.03;1.90;;;;;;;-149.78;48.57;50076.41;4836692;29;20042;-70
2022/03/14 08:53:21;;;;;;;9.07;2.28;;;;;;;-149.78;46.68;50029.47;4840692;29;20553;-70
2022/03/14 08:56:01;;;;;;;5.28;1.80;;;;;;;-149.78;47.10;50080.31;4826952;29;20411;-70
2022/03/14 08:58:34;;;;;;;4.97;1.98;;;;;;;-149.78;45.66;50060.75;4826213;29;20478;-70
2022/03/14 09:01:20;;;;;;;6.20;2.25;;;;;;;-149.78;45.71;50064.66;4827085;29;20066;-71
2022/03/14 09:03:46;;;;;;;7.65;2.20;;;;;;;-149.78;47.27;50064.66;4807040;29;20450;-70
2022/03/14 09:06:35;;;;;;;5.22;2.10;;;;;;;-149.78;43.52;49998.19;4820952;29;20038;-70
2022/03/14 09:09:21;;;;;;;5.70;1.83;;;;;;;-149.78;42.15;50006.00;4820156;29;20134;-70
2022/03/14 09:11:47;;;;;;;5.45;2.22;;;;;;;-149.78;41.05;49978.63;4819215;29;20220;-71
2022/03/14 09:14:18;;;;;;;6.00;1.85;;;;;;;-149.78;40.75;49990.34;4802938;29;20046;-70
2022/03/14 09:16:46;;;;;;;4.95;2.05;;;;;;;-149.78;40.83;49972.75;4800916;29;20069;-71
2022/03/14 09:19:13;;;;;;;5.43;1.83;;;;;;;-149.78;41.23;50037.28;4796955;29;20046;-70
2022/03/14 09:21:38;;;;;;;9.05;2.42;;;;;;;-149.78;41.22;50002.09;4806298;29;20038;-71
2022/03/14 09:24:07;;;;;;;6.70;1.90;;;;;;;-149.78;40.96;50041.19;4826760;29;20038;-71
2022/03/14 09:26:35;;;;;;;7.88;2.47;;;;;;;-149.78;40.20;50002.09;4816111;29;20050;-70
2022/03/14 09:29:06;;;;;;;;;;;;;;;-149.78;39.37;50006.00;4835198;29;20042;-70
2022/03/14 09:31:38;;;;;;;5.68;1.70;;;;;;;-149.78;38.18;49974.72;4825963;29;19917;-71
2022/03/14 09:34:20;;;;;;;5.28;1.60;;;;;;;-149.78;37.18;49992.31;4829068;29;20038;-70
2022/03/14 09:37:05;;;;;;;6.90;1.60;;;;;;;-149.78;35.76;49978.63;4819967;29;20054;-71
2022/03/14 09:39:51;;;;;;;7.10;1.40;;;;;;;-149.78;36.70;49959.06;4824410;29;20463;-69
2022/03/14 09:42:24;;;;;;;7.03;1.67;;;;;;;-149.78;35.34;49912.13;4828457;29;20046;-69
2022/03/14 09:45:11;;;;;;;7.15;1.85;;;;;;;-149.78;34.89;49927.78;4810309;29;20046;-71
2022/03/14 09:48:01;;;;;;;4.70;1.50;;;;;;;-149.78;35.21;49947.34;4794836;29;20126;-71
2022/03/14 09:50:39;;;;;;;11.38;1.77;;;;;;;-149.78;34.69;49935.59;4823947;29;20483;-71
2022/03/14 09:53:24;;;;;;;6.43;1.50;;;;;;;-149.78;33.39;49900.41;4809538;29;20051;-71
2022/03/14 09:55:50;;;;;;;2.72;1.42;;;;;;;-149.78;33.23;49910.19;4820721;29;20047;-71
2022/03/14 09:58:18;;;;;;;6.07;1.90;;;;;;;-149.78;33.58;49947.34;4796678;29;20038;-71
2022/03/14 10:00:45;;;;;;;7.03;1.55;;;;;;;-149.78;32.60;49962.97;4814103;29;20408;-71
2022/03/14 10:03:13;;;;;;;4.80;1.73;;;;;;;-149.78;33.13;49937.56;4803708;29;20038;-71
2022/03/14 10:05:46;;;;;;;5.78;1.70;;;;;;;-149.78;33.52;49923.88;4794552;29;20539;-71
2022/03/14 10:08:33;;;;;;;3.72;1.38;;;;;;;-149.78;32.09;49925.81;4814947;29;20050;-71
2022/03/14 10:10:59;;;;;;;6.30;1.80;;;;;;;-149.78;32.51;49959.06;4801999;29;20190;-71
2022/03/14 10:14:02;;;;;;;3.53;1.40;;;;;;;-149.78;32.01;49945.38;4819333;29;20102;-71
2022/03/14 10:16:43;;;;;;;;;;;;;;;-149.78;33.41;49959.06;4829592;29;20125;-71
2022/03/14 10:19:09;;;;;;;6.00;1.63;;;;;;;-149.78;33.33;50002.09;4838441;29;19924;-72
2022/03/14 10:22:13;;;;;;;6.72;1.48;;;;;;;-149.78;30.31;49927.78;4801793;29;20195;-71
2022/03/14 10:24:46;;;;;;;5.97;1.50;;;;;;;-149.78;32.20;49970.78;4833942;29;20050;-71
2022/03/14 10:27:34;;;;;;;7.43;1.20;;;;;;;-149.78;33.31;49982.53;4839790;29;20454;-71
2022/03/14 10:30:20;;;;;;;4.00;1.20;;;;;;;-149.78;31.84;49951.25;4804592;29;20064;-71
2022/03/14 10:33:10;;;;;;;7.28;1.90;;;;;;;-149.78;32.08;49939.50;4817137;29;20043;-71
2022/03/14 10:36:00;;;;;;;5.60;1.10;;;;;;;-149.78;32.64;50004.03;4810032;29;20599;-71
2022/03/14 10:38:47;;;;;;;5.78;1.38;;;;;;;-149.78;30.91;49966.88;4820125;29;20414;-71
2022/03/14 10:41:29;;;;;;;4.60;1.60;;;;;;;-149.78;31.66;49972.75;4840470;29;20102;-71
2022/03/14 10:43:59;;;;;;;5.00;1.42;;;;;;;-149.78;31.51;49919.94;4794866;29;20115;-71
2022/03/14 10:46:44;;;;;;;5.88;1.25;;;;;;;-149.78;30.54;49953.19;4828417;29;20143;-71
2022/03/14 10:49:10;;;;;;;3.65;1.15;;;;;;;-149.78;32.59;49966.88;4808794;29;20029;-71
2022/03/14 10:52:03;;;;;;;5.38;1.20;;;;;;;-149.78;33.24;50029.47;4821319;29;20096;-71
2022/03/14 10:54:41;;;;;;;3.00;1.08;;;;;;;-149.78;32.44;49962.97;4817199;29;20483;-71
2022/03/14 10:57:10;;;;;;;4.15;1.33;;;;;;;-149.78;31.82;49986.44;4786820;29;20055;-71
2022/03/14 10:59:47;;;;;;;3.50;1.20;;;;;;;-149.78;33.54;50015.78;4775909;29;20184;-71
2022/03/14 11:02:20;;;;;;;5.43;1.20;;;;;;;-149.78;32.15;49982.53;4773498;30;20134;-71
2022/03/14 11:04:56;;;;;;;5.43;1.70;;;;;;;-149.78;32.25;49955.16;4785878;29;20177;-71
2022/03/14 11:07:43;;;;;;;4.97;1.58;;;;;;;-149.78;32.03;49976.66;4783159;29;20142;-71
2022/03/14 11:10:10;;;;;;;4.78;1.52;;;;;;;-149.78;32.34;49994.25;4791484;29;20195;-71
2022/03/14 11:12:40;;;;;;;4.83;1.53;;;;;;;-149.78;34.15;49970.78;4801053;29;20050;-72
2022/03/14 11:15:09;;;;;;;8.05;1.80;;;;;;;-149.78;33.85;50015.78;4802477;29;20053;-71